createdAt,value
2023-02-28T00:00:46.452Z,75.38
2023-02-28T00:03:13.560Z,75.71
2023-02-28T00:05:40.801Z,75.59
2023-02-28T00:08:08.089Z,75.72
2023-02-28T00:10:35.725Z,75.73
2023-02-28T00:13:05.886Z,75.54
2023-02-28T00:15:34.019Z,76.04
2023-02-28T00:18:01.316Z,77.04
2023-02-28T00:20:28.446Z,76.59
2023-02-28T00:22:56.769Z,77.25
2023-02-28T00:25:26.121Z,77.83
2023-02-28T00:27:53.723Z,77.63
2023-02-28T00:30:23.186Z,77.22
2023-02-28T00:32:59.151Z,76.96
2023-02-28T00:35:26.131Z,76.12
2023-02-28T00:37:53.260Z,76.34
2023-02-28T00:40:20.416Z,76.31
2023-02-28T00:42:47.404Z,76.53
2023-02-28T00:45:14.578Z,76.35
2023-02-28T00:47:41.671Z,76.55
2023-02-28T00:50:09.760Z,76.45
2023-02-28T00:52:37.488Z,75.88
2023-02-28T00:55:05.077Z,76.63
2023-02-28T00:57:32.254Z,76.40
2023-02-28T00:59:59.353Z,76.44
2023-02-28T01:02:26.459Z,76.08
2023-02-28T01:04:53.550Z,76.25
2023-02-28T01:07:20.676Z,75.62
2023-02-28T01:09:47.749Z,75.31
2023-02-28T01:12:14.880Z,75.98
2023-02-28T01:14:41.944Z,76.05
2023-02-28T01:17:09.855Z,76.57
2023-02-28T01:19:37.247Z,77.26
2023-02-28T01:22:06.274Z,76.85
2023-02-28T01:24:34.561Z,76.24
2023-02-28T01:27:01.741Z,77.36
2023-02-28T01:29:28.789Z,77.12
2023-02-28T01:31:55.885Z,76.90
2023-02-28T01:34:23.121Z,77.04
2023-02-28T01:36:51.744Z,77.37
2023-02-28T01:39:19.674Z,77.10
2023-02-28T01:41:46.797Z,77.79
2023-02-28T01:44:51.553Z,77.96
2023-02-28T01:47:18.677Z,78.08
2023-02-28T01:49:46.062Z,78.21
2023-02-28T01:52:19.308Z,78.99
2023-02-28T01:54:52.025Z,79.32
2023-02-28T01:57:27.543Z,79.51
2023-02-28T02:00:08.603Z,79.04
2023-02-28T02:02:40.263Z,78.98
2023-02-28T02:05:15.092Z,79.45
2023-02-28T02:07:44.091Z,80.36
2023-02-28T02:10:17.509Z,79.30
2023-02-28T02:13:26.399Z,79.76
2023-02-28T02:16:08.691Z,79.23
2023-02-28T02:18:53.347Z,79.23
2023-02-28T02:21:38.593Z,79.29
2023-02-28T02:24:24.333Z,79.17
2023-02-28T02:27:08.492Z,80.05
2023-02-28T02:29:35.651Z,79.71
2023-02-28T02:32:14.612Z,80.53
2023-02-28T02:34:52.186Z,79.43
2023-02-28T02:37:32.448Z,79.68
2023-02-28T02:40:03.006Z,79.66
2023-02-28T02:42:58.194Z,79.02
2023-02-28T02:45:36.883Z,79.49
2023-02-28T02:48:08.210Z,79.82
2023-02-28T02:50:40.296Z,80.19
2023-02-28T02:53:10.263Z,80.92
2023-02-28T02:55:44.161Z,82.13
2023-02-28T02:58:22.876Z,81.52
2023-02-28T03:00:54.633Z,81.31
2023-02-28T03:03:29.978Z,81.55
2023-02-28T03:06:00.234Z,81.05
2023-02-28T03:08:28.301Z,81.34
2023-02-28T03:11:02.356Z,81.17
2023-02-28T03:13:52.613Z,82.39
2023-02-28T03:16:30.138Z,82.62
2023-02-28T03:19:18.727Z,82.55
2023-02-28T03:22:14.658Z,82.57
2023-02-28T03:24:56.109Z,82.96
2023-02-28T03:27:43.483Z,82.81
2023-02-28T03:30:13.895Z,82.22
2023-02-28T03:32:59.647Z,82.90
2023-02-28T03:35:32.273Z,82.70
2023-02-28T03:38:37.971Z,82.19
2023-02-28T03:41:15.346Z,81.53
2023-02-28T03:43:50.411Z,82.76
2023-02-28T03:46:22.490Z,82.32
2023-02-28T03:49:03.700Z,82.75
2023-02-28T03:51:32.374Z,82.84
2023-02-28T03:54:05.863Z,83.41
2023-02-28T03:56:38.695Z,83.80
2023-02-28T03:59:12.004Z,84.32
2023-02-28T04:01:50.031Z,84.40
2023-02-28T04:04:18.415Z,83.91
2023-02-28T04:06:46.289Z,84.37
2023-02-28T04:09:15.484Z,84.32
2023-02-28T04:11:46.078Z,84.60
2023-02-28T04:14:13.443Z,84.76
2023-02-28T04:16:42.584Z,84.63
2023-02-28T04:19:12.253Z,84.20
2023-02-28T04:21:44.944Z,85.20
2023-02-28T04:24:15.512Z,84.77
2023-02-28T04:26:45.485Z,84.39
2023-02-28T04:29:14.444Z,85.49
2023-02-28T04:31:41.836Z,85.07
2023-02-28T04:34:08.967Z,85.47
2023-02-28T04:36:36.207Z,85.68
2023-02-28T04:39:03.761Z,85.60
2023-02-28T04:41:32.821Z,85.11
2023-02-28T04:44:00.227Z,85.27
2023-02-28T04:46:27.272Z,85.27
2023-02-28T04:48:55.600Z,85.59
2023-02-28T04:51:22.979Z,85.34
2023-02-28T04:53:50.132Z,85.81
2023-02-28T04:56:18.727Z,86.00
2023-02-28T04:58:46.713Z,85.46
2023-02-28T05:01:24.454Z,85.56
2023-02-28T05:03:52.364Z,85.52
2023-02-28T05:06:21.373Z,85.93
2023-02-28T05:08:48.572Z,85.98
2023-02-28T05:11:22.415Z,85.37
2023-02-28T05:13:50.365Z,85.05
2023-02-28T05:16:18.422Z,85.75
2023-02-28T05:18:46.134Z,85.28
2023-02-28T05:21:34.484Z,86.06
2023-02-28T05:24:07.800Z,86.03
2023-02-28T05:26:42.766Z,86.52
2023-02-28T05:29:11.021Z,86.54
2023-02-28T05:31:39.702Z,86.63
2023-02-28T05:34:06.874Z,86.18
2023-02-28T05:36:34.247Z,87.06
2023-02-28T05:39:01.352Z,87.19
2023-02-28T05:41:28.769Z,87.08
2023-02-28T05:43:56.129Z,87.37
2023-02-28T05:46:23.302Z,87.45
2023-02-28T05:48:50.530Z,87.83
2023-02-28T05:51:18.777Z,88.05
2023-02-28T05:53:45.850Z,89.75
2023-02-28T05:56:16.228Z,89.12
2023-02-28T05:58:43.716Z,89.31
2023-02-28T06:01:38.939Z,89.97
2023-02-28T06:04:14.335Z,90.15
2023-02-28T06:06:47.643Z,89.35
2023-02-28T06:09:14.863Z,90.55
2023-02-28T06:11:42.632Z,91.04
2023-02-28T06:14:16.081Z,91.16
2023-02-28T06:16:43.285Z,90.93
2023-02-28T06:19:11.000Z,92.81
2023-02-28T06:21:38.568Z,94.23
2023-02-28T06:24:06.078Z,96.02
2023-02-28T06:26:33.326Z,97.22
2023-02-28T06:29:01.936Z,97.33
2023-02-28T06:31:30.611Z,97.97
2023-02-28T06:33:57.919Z,98.20
2023-02-28T06:36:25.219Z,97.83
2023-02-28T06:38:55.882Z,97.20
2023-02-28T06:41:24.705Z,97.01
2023-02-28T06:43:51.677Z,97.74
2023-02-28T06:46:19.042Z,97.81
2023-02-28T06:48:46.444Z,98.44
2023-02-28T06:51:17.220Z,97.88
2023-02-28T06:53:44.312Z,97.48
2023-02-28T06:56:14.037Z,97.76
2023-02-28T06:58:41.804Z,97.78
2023-02-28T07:01:09.519Z,97.30
2023-02-28T07:03:37.819Z,95.95
2023-02-28T07:06:06.584Z,95.11
2023-02-28T07:08:34.663Z,94.95
2023-02-28T07:11:01.749Z,94.60
2023-02-28T07:13:28.910Z,94.32
2023-02-28T07:16:01.501Z,93.33
2023-02-28T07:18:28.886Z,94.54
2023-02-28T07:20:56.448Z,94.43
2023-02-28T07:23:24.207Z,94.86
2023-02-28T07:25:52.406Z,94.94
2023-02-28T07:28:19.503Z,94.35
2023-02-28T07:30:46.694Z,95.83
2023-02-28T07:33:13.697Z,95.63
2023-02-28T07:35:40.965Z,94.65
2023-02-28T07:38:08.826Z,93.84
2023-02-28T07:40:36.527Z,94.46
2023-02-28T07:43:04.570Z,94.10
2023-02-28T07:45:35.573Z,93.28
2023-02-28T07:48:03.376Z,93.59
2023-02-28T07:50:31.994Z,94.71
2023-02-28T07:53:00.372Z,93.89
2023-02-28T07:55:27.822Z,93.18
2023-02-28T07:57:55.350Z,90.21
2023-02-28T08:00:22.899Z,90.86
2023-02-28T08:02:50.264Z,92.63
2023-02-28T08:05:18.845Z,93.15
2023-02-28T08:07:48.767Z,90.93
2023-02-28T08:10:16.052Z,86.75
2023-02-28T08:12:43.161Z,86.72
2023-02-28T08:15:10.751Z,86.10
2023-02-28T08:17:37.890Z,85.38
2023-02-28T08:20:05.584Z,85.38
2023-02-28T08:22:32.558Z,83.23
2023-02-28T08:24:59.674Z,83.77
2023-02-28T08:27:26.728Z,84.12
2023-02-28T08:29:53.773Z,84.83
2023-02-28T08:32:29.286Z,84.33
2023-02-28T08:34:57.509Z,84.60
2023-02-28T08:37:24.668Z,82.02
2023-02-28T08:39:53.979Z,79.15
2023-02-28T08:42:22.852Z,81.83
2023-02-28T08:44:49.907Z,83.55
2023-02-28T08:47:17.123Z,84.57
2023-02-28T08:49:44.270Z,80.70
2023-02-28T08:52:11.225Z,80.64
2023-02-28T08:54:38.232Z,80.57
2023-02-28T08:57:05.454Z,84.38
2023-02-28T08:59:32.811Z,86.13
2023-02-28T09:01:59.855Z,85.00
2023-02-28T09:04:27.090Z,78.07
2023-02-28T09:06:54.124Z,79.42
2023-02-28T09:09:21.262Z,79.10
2023-02-28T09:11:48.302Z,78.21
2023-02-28T09:14:15.276Z,73.48
2023-02-28T09:16:42.283Z,73.68
2023-02-28T09:19:13.156Z,71.24
2023-02-28T09:21:40.556Z,71.31
2023-02-28T09:24:08.612Z,74.34
2023-02-28T09:26:42.734Z,74.22
2023-02-28T09:29:15.715Z,74.90
2023-02-28T09:31:42.729Z,73.31
2023-02-28T09:34:09.977Z,76.25
2023-02-28T09:36:45.264Z,75.32
2023-02-28T09:39:15.583Z,74.81
2023-02-28T09:41:51.550Z,72.84
2023-02-28T09:44:32.508Z,71.50
2023-02-28T09:47:06.836Z,71.92
2023-02-28T09:49:41.475Z,68.91
2023-02-28T09:52:17.321Z,70.76
2023-02-28T09:54:44.478Z,71.94
2023-02-28T09:57:30.799Z,69.14
2023-02-28T10:00:13.688Z,68.34
2023-02-28T10:02:52.860Z,69.28
2023-02-28T10:05:28.187Z,71.36
2023-02-28T10:08:12.997Z,66.73
2023-02-28T10:10:44.609Z,69.19
2023-02-28T10:13:17.821Z,69.63
2023-02-28T10:15:47.732Z,68.42
2023-02-28T10:18:21.714Z,66.65
2023-02-28T10:20:50.130Z,67.47
2023-02-28T10:23:37.117Z,67.35
2023-02-28T10:26:13.986Z,65.41
2023-02-28T10:28:41.502Z,67.95
2023-02-28T10:31:15.873Z,69.28
2023-02-28T10:33:42.967Z,68.50
2023-02-28T10:36:17.966Z,70.42
2023-02-28T10:38:46.301Z,70.63
2023-02-28T10:41:27.861Z,69.14
2023-02-28T10:44:14.799Z,70.52
2023-02-28T10:46:43.625Z,69.95
2023-02-28T10:49:24.944Z,70.78
2023-02-28T10:52:01.198Z,72.12
2023-02-28T10:54:30.856Z,71.45
2023-02-28T10:57:31.681Z,73.07
2023-02-28T11:00:17.041Z,71.80
2023-02-28T11:02:45.820Z,74.90
2023-02-28T11:05:33.307Z,70.75
2023-02-28T11:08:13.950Z,71.81
2023-02-28T11:10:45.536Z,71.07
2023-02-28T11:13:23.450Z,73.01
2023-02-28T11:15:56.727Z,74.72
2023-02-28T11:18:32.019Z,73.31
2023-02-28T11:21:02.277Z,72.04
2023-02-28T11:23:33.590Z,71.45
2023-02-28T11:26:03.019Z,71.93
2023-02-28T11:28:36.060Z,73.90
2023-02-28T11:31:05.784Z,75.26
2023-02-28T11:33:43.493Z,75.20
2023-02-28T11:36:25.743Z,75.61
2023-02-28T11:38:55.192Z,74.87
2023-02-28T11:41:28.392Z,74.50
2023-02-28T11:44:29.014Z,74.74
2023-02-28T11:47:02.052Z,72.20
2023-02-28T11:49:40.401Z,73.69
2023-02-28T11:52:30.595Z,70.70
2023-02-28T11:55:17.337Z,71.37
2023-02-28T11:57:57.146Z,70.45
2023-02-28T12:00:45.546Z,64.47
2023-02-28T12:03:38.632Z,63.91
2023-02-28T12:06:15.056Z,67.06
2023-02-28T12:09:10.242Z,70.15
2023-02-28T12:11:54.166Z,72.30
2023-02-28T12:14:48.704Z,74.83
2023-02-28T12:17:18.455Z,75.85
2023-02-28T12:19:58.099Z,76.38
2023-02-28T12:22:27.867Z,76.48
2023-02-28T12:25:21.442Z,75.75
2023-02-28T12:27:50.388Z,75.59
2023-02-28T12:30:28.226Z,74.92
2023-02-28T12:33:11.000Z,75.58
2023-02-28T12:35:58.153Z,75.51
2023-02-28T12:38:38.658Z,76.14
2023-02-28T12:41:21.802Z,76.08
2023-02-28T12:43:56.729Z,76.21
2023-02-28T12:46:42.697Z,77.75
2023-02-28T12:49:16.864Z,78.30
2023-02-28T12:51:45.863Z,78.41
2023-02-28T12:54:20.741Z,77.84
2023-02-28T12:57:06.184Z,78.65
2023-02-28T12:59:59.522Z,78.39
2023-02-28T13:03:14.686Z,77.96
2023-02-28T13:06:26.628Z,76.99
2023-02-28T13:09:05.911Z,77.02
2023-02-28T13:11:46.380Z,76.18
2023-02-28T13:14:38.474Z,76.54
2023-02-28T13:17:08.273Z,77.71
2023-02-28T13:19:38.879Z,78.26
2023-02-28T13:22:06.964Z,79.05
2023-02-28T13:24:56.321Z,79.20
2023-02-28T13:27:35.935Z,78.92
2023-02-28T13:30:41.500Z,79.33
2023-02-28T13:33:30.004Z,79.22
2023-02-28T13:36:15.495Z,80.35
2023-02-28T13:38:57.562Z,80.61
2023-02-28T13:41:31.011Z,80.78
2023-02-28T13:44:21.112Z,80.96
2023-02-28T13:46:50.889Z,79.96
2023-02-28T13:49:26.429Z,79.21
2023-02-28T13:52:18.984Z,78.99
2023-02-28T13:55:12.919Z,79.20
2023-02-28T13:57:54.314Z,79.63
2023-02-28T14:00:36.269Z,79.26
2023-02-28T14:03:12.461Z,79.81
2023-02-28T14:05:39.975Z,80.25
2023-02-28T14:08:14.826Z,80.53
2023-02-28T14:10:48.260Z,80.56
2023-02-28T14:13:38.632Z,79.27
2023-02-28T14:16:08.236Z,78.45
2023-02-28T14:18:37.938Z,78.76
2023-02-28T14:21:13.478Z,80.49
2023-02-28T14:24:07.968Z,80.38
2023-02-28T14:27:03.029Z,80.40
2023-02-28T14:29:51.299Z,79.70
2023-02-28T14:32:33.993Z,78.23
2023-02-28T14:35:21.553Z,77.08
2023-02-28T14:37:50.773Z,75.76
2023-02-28T14:40:28.998Z,75.55
2023-02-28T14:43:07.865Z,75.92
2023-02-28T14:45:38.427Z,75.65
2023-02-28T14:48:10.860Z,77.27
2023-02-28T14:50:38.988Z,78.76
2023-02-28T14:53:13.636Z,79.86
2023-02-28T14:55:46.151Z,80.47
2023-02-28T14:58:25.051Z,80.64
2023-02-28T15:00:54.657Z,80.53
2023-02-28T15:03:26.245Z,80.79
2023-02-28T15:06:05.677Z,80.51
2023-02-28T15:08:37.271Z,79.89
2023-02-28T15:11:20.426Z,80.35
2023-02-28T15:13:51.005Z,80.90
2023-02-28T15:16:23.189Z,81.28
2023-02-28T15:19:07.263Z,81.39
2023-02-28T15:21:41.448Z,81.19
2023-02-28T15:24:28.682Z,81.81
2023-02-28T15:26:58.595Z,81.54
2023-02-28T15:29:37.466Z,82.46
2023-02-28T15:32:07.433Z,81.53
2023-02-28T15:34:44.406Z,82.73
2023-02-28T15:37:33.277Z,82.27
2023-02-28T15:40:13.543Z,81.60
2023-02-28T15:42:40.752Z,82.07
2023-02-28T15:45:29.787Z,81.92
2023-02-28T15:47:59.932Z,81.95
2023-02-28T15:50:31.925Z,81.29
2023-02-28T15:52:59.098Z,80.24
2023-02-28T15:55:29.333Z,79.78
2023-02-28T15:58:00.789Z,80.12
2023-02-28T16:00:29.644Z,80.50
2023-02-28T16:02:56.794Z,80.32
2023-02-28T16:05:34.917Z,80.16
2023-02-28T16:08:12.596Z,81.38
2023-02-28T16:10:39.646Z,81.85
2023-02-28T16:13:07.089Z,81.64
2023-02-28T16:15:43.570Z,82.76
2023-02-28T16:18:14.214Z,82.25
2023-02-28T16:20:41.625Z,81.70
2023-02-28T16:23:09.231Z,81.63
2023-02-28T16:25:39.673Z,81.53
2023-02-28T16:28:33.791Z,80.91
2023-02-28T16:31:03.841Z,80.76
2023-02-28T16:33:31.898Z,81.37
2023-02-28T16:35:59.072Z,81.82
2023-02-28T16:38:26.344Z,82.06
2023-02-28T16:40:57.231Z,81.72
2023-02-28T16:43:27.539Z,81.94
2023-02-28T16:46:01.338Z,81.99
2023-02-28T16:48:28.711Z,81.81
2023-02-28T16:50:55.665Z,82.24
2023-02-28T16:53:22.689Z,83.06
2023-02-28T16:55:51.937Z,83.72
2023-02-28T16:58:20.413Z,83.14
2023-02-28T17:00:47.332Z,83.16
2023-02-28T17:03:32.696Z,83.79
2023-02-28T17:06:00.760Z,84.92
2023-02-28T17:08:29.886Z,84.16
2023-02-28T17:10:57.243Z,83.82
2023-02-28T17:13:24.343Z,83.50
2023-02-28T17:15:51.677Z,82.26
2023-02-28T17:18:20.848Z,81.72
2023-02-28T17:20:48.236Z,82.19
2023-02-28T17:23:15.252Z,82.13
2023-02-28T17:25:42.232Z,82.17
2023-02-28T17:28:10.344Z,81.66
2023-02-28T17:30:37.597Z,82.26
2023-02-28T17:33:04.601Z,81.29
2023-02-28T17:35:31.578Z,81.36
2023-02-28T17:37:58.674Z,81.40
2023-02-28T17:40:25.752Z,81.61
2023-02-28T17:42:53.464Z,81.86
2023-02-28T17:45:21.080Z,81.35
2023-02-28T17:47:51.322Z,81.67
2023-02-28T17:50:22.832Z,82.74
2023-02-28T17:52:51.609Z,83.40
2023-02-28T17:55:20.120Z,83.79
2023-02-28T17:57:47.487Z,82.99
2023-02-28T18:00:18.491Z,82.44
2023-02-28T18:02:45.997Z,82.78
2023-02-28T18:05:13.099Z,83.04
2023-02-28T18:07:40.868Z,81.94
2023-02-28T18:10:17.219Z,82.11
2023-02-28T18:12:45.041Z,80.45
2023-02-28T18:15:12.221Z,80.25
2023-02-28T18:17:39.160Z,81.30
2023-02-28T18:20:07.149Z,80.57
2023-02-28T18:22:36.994Z,80.29
2023-02-28T18:25:05.956Z,80.53
2023-02-28T18:27:33.071Z,80.04
2023-02-28T18:30:00.037Z,80.55
2023-02-28T18:32:27.504Z,79.21
2023-02-28T18:34:54.680Z,76.60
2023-02-28T18:37:21.736Z,74.37
2023-02-28T18:39:48.666Z,74.95
2023-02-28T18:42:15.623Z,74.97
2023-02-28T18:44:42.790Z,75.83
2023-02-28T18:47:09.808Z,76.79
2023-02-28T18:49:38.195Z,75.84
2023-02-28T18:52:05.546Z,76.48
2023-02-28T18:54:32.638Z,76.50
2023-02-28T18:56:59.617Z,76.53
2023-02-28T18:59:26.628Z,75.27
2023-02-28T19:01:53.658Z,76.78
2023-02-28T19:04:20.678Z,76.63
2023-02-28T19:06:47.748Z,74.49
2023-02-28T19:09:14.876Z,74.76
2023-02-28T19:11:42.090Z,73.32
2023-02-28T19:14:09.762Z,71.93
2023-02-28T19:16:36.950Z,71.96
2023-02-28T19:19:04.009Z,71.79
2023-02-28T19:21:31.040Z,73.50
2023-02-28T19:23:58.155Z,74.87
2023-02-28T19:26:27.174Z,75.46
2023-02-28T19:28:54.355Z,74.88
2023-02-28T19:31:25.215Z,74.39
2023-02-28T19:33:53.138Z,76.03
2023-02-28T19:36:21.786Z,75.55
2023-02-28T19:38:49.408Z,75.40
2023-02-28T19:41:17.692Z,75.76
2023-02-28T19:43:44.703Z,75.19
2023-02-28T19:46:12.940Z,76.50
2023-02-28T19:48:40.460Z,77.11
2023-02-28T19:51:10.518Z,77.46
2023-02-28T19:53:39.153Z,76.25
2023-02-28T19:56:07.028Z,75.80
2023-02-28T19:58:34.753Z,77.61
2023-02-28T20:01:13.825Z,77.22
2023-02-28T20:03:41.247Z,78.04
2023-02-28T20:06:13.914Z,78.24
2023-02-28T20:08:41.114Z,78.72
2023-02-28T20:11:18.003Z,78.48
2023-02-28T20:13:45.701Z,78.70
2023-02-28T20:16:14.015Z,78.51
2023-02-28T20:18:44.199Z,78.11
2023-02-28T20:21:13.123Z,76.66
2023-02-28T20:23:40.892Z,74.31
2023-02-28T20:26:08.029Z,74.22
2023-02-28T20:28:35.097Z,74.36
2023-02-28T20:31:02.180Z,76.20
2023-02-28T20:33:29.270Z,74.45
2023-02-28T20:36:03.389Z,75.87
2023-02-28T20:38:30.490Z,76.09
2023-02-28T20:41:01.458Z,77.85
2023-02-28T20:43:29.257Z,78.92
2023-02-28T20:45:58.703Z,79.52
2023-02-28T20:48:26.096Z,79.92
2023-02-28T20:50:55.132Z,78.37
2023-02-28T20:53:24.283Z,77.88
2023-02-28T20:56:04.936Z,78.12
2023-02-28T20:58:35.764Z,77.62
2023-02-28T21:01:18.244Z,77.31
2023-02-28T21:03:48.017Z,78.60
2023-02-28T21:06:17.028Z,78.83
2023-02-28T21:08:45.079Z,79.26
2023-02-28T21:11:14.469Z,80.19
2023-02-28T21:13:42.679Z,79.56
2023-02-28T21:16:15.527Z,79.36
2023-02-28T21:18:42.844Z,78.55
2023-02-28T21:21:19.614Z,78.65
2023-02-28T21:23:47.318Z,79.08
2023-02-28T21:26:18.704Z,79.88
2023-02-28T21:28:54.882Z,80.56
2023-02-28T21:31:23.886Z,81.93
2023-02-28T21:33:53.766Z,82.32
2023-02-28T21:36:23.990Z,81.68
2023-02-28T21:38:57.469Z,81.17
2023-02-28T21:41:25.264Z,81.13
2023-02-28T21:43:53.336Z,81.80
2023-02-28T21:46:23.690Z,80.34
2023-02-28T21:48:51.207Z,81.96
2023-02-28T21:51:21.118Z,81.35
2023-02-28T21:53:48.638Z,80.60
2023-02-28T21:56:25.093Z,80.95
2023-02-28T21:59:00.345Z,80.61
2023-02-28T22:01:39.160Z,81.67
2023-02-28T22:04:09.226Z,81.61
2023-02-28T22:06:39.465Z,82.07
2023-02-28T22:09:09.173Z,81.30
2023-02-28T22:11:37.602Z,81.06
2023-02-28T22:14:06.799Z,81.38
2023-02-28T22:16:49.585Z,80.99
2023-02-28T22:19:18.226Z,79.48
2023-02-28T22:21:46.879Z,80.03
2023-02-28T22:24:14.917Z,80.34
2023-02-28T22:26:41.961Z,79.65
2023-02-28T22:29:09.375Z,80.42
2023-02-28T22:31:36.685Z,80.64
2023-02-28T22:34:06.832Z,81.06
2023-02-28T22:36:34.316Z,80.98
2023-02-28T22:39:01.893Z,82.65
2023-02-28T22:41:29.870Z,81.04
2023-02-28T22:44:00.092Z,81.15
2023-02-28T22:46:29.678Z,80.87
2023-02-28T22:48:58.802Z,80.21
2023-02-28T22:51:27.863Z,80.33
2023-02-28T22:53:56.935Z,79.99
2023-02-28T22:56:25.749Z,79.92
2023-02-28T22:58:55.885Z,80.64
2023-02-28T23:01:25.353Z,80.17
2023-02-28T23:03:52.698Z,81.00
2023-02-28T23:06:28.472Z,81.54
2023-02-28T23:08:57.811Z,82.28
2023-02-28T23:11:28.328Z,82.09
2023-02-28T23:14:01.315Z,82.21
2023-02-28T23:16:33.097Z,81.66
2023-02-28T23:19:02.845Z,81.82
2023-02-28T23:21:31.004Z,81.49
2023-02-28T23:23:58.467Z,80.54
2023-02-28T23:26:25.512Z,80.41
2023-02-28T23:28:52.634Z,80.83
2023-02-28T23:31:21.561Z,81.91
2023-02-28T23:33:48.620Z,83.00
2023-02-28T23:36:17.058Z,82.09
2023-02-28T23:38:48.003Z,82.94
2023-02-28T23:41:16.073Z,83.59
2023-02-28T23:43:43.966Z,83.06
2023-02-28T23:46:13.821Z,82.99
2023-02-28T23:48:41.472Z,82.63
2023-02-28T23:51:17.900Z,83.00
2023-02-28T23:53:47.230Z,82.60
2023-02-28T23:56:17.267Z,82.55
2023-02-28T23:58:45.958Z,83.47
